Time;durP1;ratioP1;P1;durP2;ratioP2;P2;SDS_P1;SDS_P2;PMS_P1;PMS_P2;Temp;Humidity;BMP_temperature;BMP_pressure;BME280_temperature;BME280_humidity;BME280_pressure;Samples;Min_cycle;Max_cycle;Signal;HPM_P1;HPM_P2
2023/08/09 00:01:12;;;;;;;6.78;3.10;;;12.00;99.90;;;;;;5029151;28;20045;-67
2023/08/09 00:03:38;;;;;;;6.38;3.25;;;12.00;99.90;;;;;;5017072;28;20710;-68
2023/08/09 00:06:04;;;;;;;4.85;2.60;;;12.10;99.90;;;;;;5029401;28;20120;-67
2023/08/09 00:08:30;;;;;;;7.72;2.92;;;12.00;99.90;;;;;;5047784;28;20512;-67
2023/08/09 00:10:55;;;;;;;7.13;2.90;;;12.00;99.90;;;;;;5028583;28;20136;-68
2023/08/09 00:13:21;;;;;;;4.82;2.95;;;12.10;99.90;;;;;;5028344;28;20191;-67
2023/08/09 00:15:47;;;;;;;7.55;3.15;;;12.10;99.90;;;;;;5031534;28;20042;-67
2023/08/09 00:18:13;;;;;;;6.97;2.75;;;12.10;99.90;;;;;;5034295;28;20067;-67
2023/08/09 00:20:39;;;;;;;6.70;2.92;;;12.10;99.90;;;;;;5048003;28;20049;-67
2023/08/09 00:23:04;;;;;;;5.93;3.17;;;12.00;99.90;;;;;;5060257;28;20048;-67
2023/08/09 00:25:30;;;;;;;9.27;3.53;;;12.10;99.90;;;;;;5033660;28;20033;-67
2023/08/09 00:27:56;;;;;;;6.72;3.25;;;12.00;99.90;;;;;;5037801;28;20472;-67
2023/08/09 00:30:22;;;;;;;11.55;3.40;;;12.00;99.90;;;;;;5042846;28;20030;-68
2023/08/09 00:32:48;;;;;;;8.57;3.38;;;12.00;99.90;;;;;;5035215;28;20041;-67
2023/08/09 00:35:13;;;;;;;6.32;3.70;;;12.10;99.90;;;;;;5041771;28;20049;-67
2023/08/09 00:37:39;;;;;;;7.22;3.35;;;12.00;99.90;;;;;;5041804;28;20041;-67
2023/08/09 00:40:11;;;;;;;5.75;3.60;;;12.00;99.90;;;;;;5033353;28;20038;-67
2023/08/09 00:42:38;;;;;;;9.15;3.78;;;12.00;99.90;;;;;;5030402;28;20061;-67
2023/08/09 00:45:05;;;;;;;9.73;3.40;;;11.90;99.90;;;;;;5054565;28;20124;-67
2023/08/09 00:47:32;;;;;;;5.78;3.40;;;11.90;99.90;;;;;;5040577;28;20029;-67
2023/08/09 00:49:58;;;;;;;7.63;3.50;;;11.90;99.90;;;;;;5035825;28;20052;-68
2023/08/09 00:52:26;;;;;;;7.15;3.92;;;11.90;99.90;;;;;;5042802;28;20061;-67
2023/08/09 00:54:52;;;;;;;6.22;3.35;;;11.90;99.90;;;;;;5056554;28;20403;-68
2023/08/09 00:57:18;;;;;;;7.32;3.40;;;11.90;99.90;;;;;;5039425;28;20041;-67
2023/08/09 00:59:44;;;;;;;8.20;4.40;;;11.90;99.90;;;;;;5037146;28;20144;-67
2023/08/09 01:02:09;;;;;;;8.00;3.88;;;11.90;99.90;;;;;;5039213;28;20477;-67
2023/08/09 01:04:36;;;;;;;7.65;3.95;;;11.80;99.90;;;;;;5017369;28;20029;-68
2023/08/09 01:07:14;;;;;;;7.78;4.07;;;11.80;99.90;;;;;;5036796;28;20373;-67
2023/08/09 01:09:51;;;;;;;5.72;4.00;;;11.90;99.90;;;;;;5034832;28;20033;-67
2023/08/09 01:12:22;;;;;;;7.28;3.65;;;11.90;99.90;;;;;;5030171;28;21763;-67
2023/08/09 01:14:52;;;;;;;8.40;4.00;;;11.80;99.90;;;;;;5034417;28;20385;-67
2023/08/09 01:17:18;;;;;;;12.52;4.65;;;11.80;99.90;;;;;;5048207;28;20504;-67
2023/08/09 01:19:54;;;;;;;7.72;4.47;;;11.80;99.90;;;;;;5044982;28;20428;-67
2023/08/09 01:22:31;;;;;;;10.65;4.15;;;11.70;99.90;;;;;;5041722;28;20064;-67
2023/08/09 01:25:06;;;;;;;6.93;4.53;;;11.70;99.90;;;;;;5023597;28;20099;-68
2023/08/09 01:27:36;;;;;;;7.65;4.70;;;11.70;99.90;;;;;;5039097;28;20337;-68
2023/08/09 01:30:11;;;;;;;7.70;4.38;;;11.70;99.90;;;;;;5037504;28;20454;-67
2023/08/09 01:32:37;;;;;;;12.20;5.05;;;11.70;99.90;;;;;;5037971;28;20042;-67
2023/08/09 01:35:03;;;;;;;9.02;4.95;;;11.70;99.90;;;;;;5060924;28;20040;-67
2023/08/09 01:37:41;;;;;;;9.05;5.20;;;11.60;99.90;;;;;;5036231;28;20052;-67
2023/08/09 01:40:10;;;;;;;8.65;4.97;;;11.70;99.90;;;;;;5054953;28;20102;-67
2023/08/09 01:42:40;;;;;;;10.38;4.72;;;11.60;99.90;;;;;;5044786;28;20049;-68
2023/08/09 01:45:10;;;;;;;9.18;4.68;;;11.60;99.90;;;;;;5052394;28;20089;-67
2023/08/09 01:47:36;;;;;;;;;;;11.60;99.90;;;;;;5039646;28;20037;-67
2023/08/09 01:50:02;;;;;;;13.40;7.18;;;11.60;99.90;;;;;;5034835;28;19923;-67
2023/08/09 01:52:28;;;;;;;9.18;4.45;;;11.50;99.90;;;;;;5037168;28;20108;-67
2023/08/09 01:54:53;;;;;;;9.70;5.10;;;11.50;99.90;;;;;;5033368;28;20055;-68
2023/08/09 01:57:20;;;;;;;8.82;4.38;;;11.50;99.90;;;;;;5042019;28;20116;-67
2023/08/09 01:59:46;;;;;;;10.52;5.00;;;11.50;99.90;;;;;;5038580;28;20598;-68
2023/08/09 02:02:11;;;;;;;7.25;4.60;;;11.40;99.90;;;;;;5034634;28;20034;-67
2023/08/09 02:04:37;;;;;;;6.53;4.03;;;11.40;99.90;;;;;;5052237;28;20035;-67
2023/08/09 02:07:03;;;;;;;7.20;4.22;;;11.40;99.90;;;;;;5040733;28;20072;-67
2023/08/09 02:09:30;;;;;;;8.15;4.40;;;11.40;99.90;;;;;;5036096;28;20425;-67
2023/08/09 02:11:56;;;;;;;9.85;4.45;;;11.30;99.90;;;;;;5033931;28;20128;-67
2023/08/09 02:14:21;;;;;;;8.80;4.72;;;11.30;99.90;;;;;;5033305;28;20426;-67
2023/08/09 02:16:47;;;;;;;8.13;4.18;;;11.40;99.90;;;;;;5032498;28;20124;-67
2023/08/09 02:19:13;;;;;;;10.65;4.55;;;11.40;99.90;;;;;;5035835;28;20052;-67
2023/08/09 02:21:40;;;;;;;9.68;5.22;;;11.40;99.90;;;;;;5045970;28;20161;-67
2023/08/09 02:24:06;;;;;;;8.13;3.92;;;11.40;99.90;;;;;;5045818;28;20075;-67
2023/08/09 02:26:33;;;;;;;8.80;4.00;;;11.40;99.90;;;;;;5045800;28;20065;-68
2023/08/09 02:29:00;;;;;;;8.18;4.28;;;11.40;99.90;;;;;;5050046;28;20045;-67
2023/08/09 02:31:27;;;;;;;9.50;4.95;;;11.40;99.90;;;;;;5029648;28;20049;-67
2023/08/09 02:33:52;;;;;;;11.27;4.45;;;11.30;99.90;;;;;;5035615;28;20483;-67
2023/08/09 02:36:18;;;;;;;7.13;4.55;;;11.30;99.90;;;;;;5049077;28;20047;-67
2023/08/09 02:38:43;;;;;;;9.00;4.68;;;11.30;99.90;;;;;;5032835;28;20037;-67
2023/08/09 02:41:09;;;;;;;8.05;4.97;;;11.30;99.90;;;;;;5034467;28;20044;-67
2023/08/09 02:43:35;;;;;;;8.93;5.00;;;11.20;99.90;;;;;;5057128;28;20036;-68
2023/08/09 02:46:01;;;;;;;9.75;4.82;;;11.30;99.90;;;;;;5039703;28;20488;-67
2023/08/09 02:48:26;;;;;;;8.88;4.38;;;11.30;99.90;;;;;;5039363;28;20126;-67
2023/08/09 02:50:52;;;;;;;8.82;4.60;;;11.20;99.90;;;;;;5035071;28;20124;-68
2023/08/09 02:53:18;;;;;;;7.90;4.82;;;11.20;99.90;;;;;;5039358;28;20137;-68
2023/08/09 02:55:44;;;;;;;7.82;4.68;;;11.20;99.90;;;;;;5037573;28;20103;-67
2023/08/09 02:58:10;;;;;;;10.32;5.53;;;11.20;99.90;;;;;;5030440;28;20099;-68
2023/08/09 03:00:36;;;;;;;9.18;5.45;;;11.20;99.90;;;;;;5036793;28;20033;-67
2023/08/09 03:03:04;;;;;;;9.77;4.68;;;11.20;99.90;;;;;;5029700;28;20045;-67
2023/08/09 03:05:30;;;;;;;11.63;5.75;;;11.20;99.90;;;;;;5036146;28;20053;-67
2023/08/09 03:07:56;;;;;;;10.18;4.95;;;11.20;99.90;;;;;;5013725;28;20326;-68
2023/08/09 03:10:22;;;;;;;9.93;5.00;;;11.20;99.90;;;;;;5036747;28;20038;-67
2023/08/09 03:12:48;;;;;;;8.45;4.80;;;11.20;99.90;;;;;;5040091;28;20051;-67
2023/08/09 03:15:15;;;;;;;8.85;4.70;;;11.20;99.90;;;;;;5044862;28;20045;-67
2023/08/09 03:17:41;;;;;;;10.77;5.10;;;11.20;99.90;;;;;;5036998;28;20104;-67
2023/08/09 03:20:13;;;;;;;9.32;4.78;;;11.20;99.90;;;;;;5040996;28;20136;-67
2023/08/09 03:22:40;;;;;;;11.95;4.97;;;11.10;99.90;;;;;;5046824;28;20518;-68
2023/08/09 03:25:06;;;;;;;9.05;4.88;;;11.10;99.90;;;;;;5051513;28;20090;-67
2023/08/09 03:27:32;;;;;;;9.13;4.82;;;11.10;99.90;;;;;;5037882;28;20036;-68
2023/08/09 03:29:58;;;;;;;9.63;4.93;;;11.10;99.90;;;;;;5043049;28;20036;-67
2023/08/09 03:32:23;;;;;;;11.88;5.30;;;11.10;99.90;;;;;;5051048;28;20664;-67
2023/08/09 03:34:49;;;;;;;8.48;5.13;;;11.10;99.90;;;;;;5043470;28;20329;-67
2023/08/09 03:37:15;;;;;;;9.13;4.55;;;11.00;99.90;;;;;;5026466;28;20037;-67
2023/08/09 03:39:41;;;;;;;9.77;4.97;;;11.00;99.90;;;;;;5036313;28;20465;-68
2023/08/09 03:42:07;;;;;;;11.70;5.00;;;11.10;99.90;;;;;;5028521;28;20048;-67
2023/08/09 03:44:32;;;;;;;8.98;4.93;;;11.00;99.90;;;;;;5029371;28;20140;-67
2023/08/09 03:46:58;;;;;;;10.68;4.80;;;11.00;99.90;;;;;;5031918;28;20041;-67
2023/08/09 03:49:23;;;;;;;9.93;4.78;;;11.00;99.90;;;;;;5036218;28;20034;-68
2023/08/09 03:51:49;;;;;;;7.78;4.78;;;11.00;99.90;;;;;;5039885;28;20437;-68
2023/08/09 03:54:15;;;;;;;8.93;4.63;;;11.00;99.90;;;;;;5033966;28;20049;-67
2023/08/09 03:56:40;;;;;;;9.45;4.50;;;11.00;99.90;;;;;;5031168;28;20080;-67
2023/08/09 03:59:07;;;;;;;7.25;4.25;;;10.90;99.90;;;;;;5039494;28;20377;-67
2023/08/09 04:01:33;;;;;;;8.77;4.57;;;10.90;99.90;;;;;;5056793;28;20129;-67
2023/08/09 04:03:59;;;;;;;7.82;4.38;;;10.90;99.90;;;;;;5037360;28;20249;-68
2023/08/09 04:06:27;;;;;;;7.95;4.35;;;10.90;99.90;;;;;;5046436;28;20041;-67
2023/08/09 04:08:53;;;;;;;9.82;4.18;;;10.80;99.90;;;;;;5036389;28;20059;-67
2023/08/09 04:11:18;;;;;;;9.38;5.38;;;10.90;99.90;;;;;;5029972;28;20091;-67
2023/08/09 04:13:44;;;;;;;8.80;4.65;;;10.90;99.90;;;;;;5033917;28;20103;-67
2023/08/09 04:16:10;;;;;;;11.10;4.72;;;10.90;99.90;;;;;;5051057;28;20040;-68
2023/08/09 04:18:35;;;;;;;8.60;5.20;;;10.90;99.90;;;;;;5038493;28;20048;-67
2023/08/09 04:21:01;;;;;;;12.20;5.35;;;10.90;99.90;;;;;;5059277;28;20047;-67
2023/08/09 04:23:27;;;;;;;10.38;5.70;;;10.90;99.90;;;;;;5036570;28;20045;-67
2023/08/09 04:25:53;;;;;;;10.18;5.55;;;10.90;99.90;;;;;;5038223;28;20092;-67
2023/08/09 04:28:19;;;;;;;9.82;5.65;;;10.90;99.90;;;;;;5037621;28;20543;-67
2023/08/09 04:30:44;;;;;;;9.10;5.18;;;10.90;99.90;;;;;;5053766;28;20033;-67
2023/08/09 04:33:10;;;;;;;8.68;5.35;;;11.00;99.90;;;;;;5032498;28;20041;-67
2023/08/09 04:35:35;;;;;;;9.82;5.43;;;11.00;99.90;;;;;;5047604;28;20033;-67
2023/08/09 04:38:03;;;;;;;8.57;5.53;;;10.90;99.90;;;;;;5031793;28;20120;-67
2023/08/09 04:40:30;;;;;;;8.75;5.13;;;10.90;99.90;;;;;;5037241;28;20599;-67
2023/08/09 04:42:55;;;;;;;9.07;5.30;;;10.90;99.90;;;;;;5042397;28;20044;-67
2023/08/09 04:45:21;;;;;;;9.27;5.30;;;10.90;99.90;;;;;;5039366;28;20033;-68
2023/08/09 04:47:48;;;;;;;11.00;5.47;;;11.00;99.90;;;;;;5043894;28;20076;-68
2023/08/09 04:50:13;;;;;;;8.68;5.10;;;10.90;99.90;;;;;;5054823;28;20132;-67
2023/08/09 04:52:39;;;;;;;11.75;5.00;;;11.00;99.90;;;;;;5035666;28;20568;-67
2023/08/09 04:55:05;;;;;;;8.60;5.13;;;11.00;99.90;;;;;;5016742;28;20049;-67
2023/08/09 04:57:31;;;;;;;10.13;4.63;;;11.00;99.90;;;;;;5031966;28;20445;-67
2023/08/09 04:59:57;;;;;;;10.13;5.30;;;11.10;99.90;;;;;;5051255;28;20094;-68
2023/08/09 05:02:23;;;;;;;7.80;4.30;;;11.10;99.90;;;;;;5050499;28;20049;-68
2023/08/09 05:04:49;;;;;;;6.82;4.32;;;11.10;99.90;;;;;;5040577;28;20037;-68
2023/08/09 05:07:15;;;;;;;10.05;4.70;;;11.20;99.90;;;;;;5049145;28;20428;-68
2023/08/09 05:09:41;;;;;;;8.23;5.00;;;11.20;99.90;;;;;;5041173;28;20056;-67
2023/08/09 05:12:06;;;;;;;8.43;4.20;;;11.20;99.90;;;;;;5060929;28;20045;-68
2023/08/09 05:14:32;;;;;;;7.65;4.18;;;11.30;99.90;;;;;;5034024;28;20609;-67
2023/08/09 05:16:58;;;;;;;8.73;3.75;;;11.40;99.90;;;;;;5041735;28;20133;-68
2023/08/09 05:19:24;;;;;;;5.88;4.25;;;11.40;99.90;;;;;;5028324;28;20643;-68
2023/08/09 05:21:50;;;;;;;7.95;3.50;;;11.50;99.90;;;;;;5040060;28;20045;-67
2023/08/09 05:24:15;;;;;;;6.15;3.78;;;11.60;99.90;;;;;;5033780;28;20033;-67
2023/08/09 05:26:41;;;;;;;7.32;3.92;;;11.70;99.90;;;;;;5047340;28;20394;-68
2023/08/09 05:29:06;;;;;;;7.03;3.88;;;11.80;99.90;;;;;;5047385;28;20033;-68
2023/08/09 05:31:32;;;;;;;6.05;3.80;;;11.90;99.90;;;;;;5045258;28;20077;-68
2023/08/09 05:33:58;;;;;;;8.77;4.22;;;12.00;99.90;;;;;;5034187;28;20037;-69
2023/08/09 05:36:24;;;;;;;7.28;3.40;;;12.10;99.90;;;;;;5029445;28;20044;-69
2023/08/09 05:38:50;;;;;;;6.25;3.42;;;12.20;99.90;;;;;;5045891;28;20041;-68
2023/08/09 05:41:16;;;;;;;6.85;3.72;;;12.30;99.90;;;;;;5055620;28;20036;-68
2023/08/09 05:43:41;;;;;;;6.55;3.70;;;12.40;99.90;;;;;;5055807;28;20020;-68
2023/08/09 05:46:07;;;;;;;5.70;4.18;;;12.40;99.90;;;;;;5033964;28;20045;-68
2023/08/09 05:48:33;;;;;;;6.85;3.72;;;12.60;99.90;;;;;;5027516;28;20037;-68
2023/08/09 05:50:59;;;;;;;5.97;3.78;;;12.60;99.90;;;;;;5044144;28;20057;-68
2023/08/09 05:53:25;;;;;;;6.63;3.22;;;12.70;99.90;;;;;;5039032;28;20075;-69
2023/08/09 05:55:50;;;;;;;5.53;3.08;;;12.80;99.90;;;;;;5046088;28;20381;-69
2023/08/09 05:58:16;;;;;;;6.70;3.05;;;13.00;99.90;;;;;;5029671;28;20041;-68
2023/08/09 06:00:42;;;;;;;5.25;3.20;;;13.20;99.90;;;;;;5032036;28;20038;-69
2023/08/09 06:03:07;;;;;;;5.18;3.53;;;13.30;99.90;;;;;;5036606;28;20461;-69
2023/08/09 06:05:33;;;;;;;5.38;2.85;;;13.50;99.90;;;;;;5047735;28;20504;-69
2023/08/09 06:07:59;;;;;;;7.35;2.92;;;13.60;99.90;;;;;;5048769;28;20415;-70
2023/08/09 06:10:25;;;;;;;5.90;2.70;;;13.80;99.90;;;;;;5039864;28;20134;-69
2023/08/09 06:12:52;;;;;;;6.07;2.47;;;13.90;99.90;;;;;;5043187;28;20040;-69
2023/08/09 06:15:18;;;;;;;4.80;2.20;;;14.10;99.90;;;;;;5035766;28;20042;-70
2023/08/09 06:17:44;;;;;;;3.92;2.00;;;14.30;99.90;;;;;;5049284;28;20418;-70
2023/08/09 06:20:14;;;;;;;4.53;1.67;;;14.30;99.90;;;;;;5041012;28;20047;-70
2023/08/09 06:22:40;;;;;;;2.60;1.83;;;14.50;99.90;;;;;;5045682;28;20037;-70
2023/08/09 06:25:08;;;;;;;4.10;1.92;;;14.70;99.90;;;;;;5041879;28;20043;-74
2023/08/09 06:27:33;;;;;;;4.30;1.80;;;14.90;99.90;;;;;;5027026;28;20060;-71
2023/08/09 06:30:00;;;;;;;3.72;1.80;;;15.10;99.90;;;;;;5038127;28;20036;-70
2023/08/09 06:32:25;;;;;;;2.70;1.50;;;15.20;99.90;;;;;;5039622;28;20086;-71
2023/08/09 06:34:51;;;;;;;4.18;1.55;;;15.40;99.90;;;;;;5038319;28;20033;-71
2023/08/09 06:37:16;;;;;;;1.60;1.25;;;15.60;99.90;;;;;;5048099;28;20045;-71
2023/08/09 06:39:42;;;;;;;2.53;1.30;;;15.80;99.90;;;;;;5035273;28;20175;-71
2023/08/09 06:42:08;;;;;;;1.85;1.17;;;16.00;99.90;;;;;;5037362;28;20122;-71
2023/08/09 06:44:34;;;;;;;2.70;1.25;;;16.10;99.90;;;;;;5038511;28;20091;-71
2023/08/09 06:47:00;;;;;;;3.63;1.30;;;16.40;99.90;;;;;;5044484;28;20045;-70
2023/08/09 06:49:26;;;;;;;1.75;1.23;;;16.50;99.90;;;;;;5052457;28;20048;-71
2023/08/09 06:51:51;;;;;;;2.78;1.17;;;16.70;99.90;;;;;;5044706;28;20148;-72
2023/08/09 06:54:17;;;;;;;2.35;1.17;;;16.90;99.90;;;;;;5041512;28;20056;-72
2023/08/09 06:56:42;;;;;;;2.63;1.17;;;17.10;99.90;;;;;;5040449;28;20188;-71
2023/08/09 06:59:08;;;;;;;4.00;1.38;;;17.20;99.90;;;;;;5045775;28;20370;-72
2023/08/09 07:01:33;;;;;;;1.50;1.10;;;17.40;99.90;;;;;;5044719;28;20056;-72
2023/08/09 07:04:00;;;;;;;2.70;0.95;;;17.50;99.90;;;;;;5053529;28;20040;-72
2023/08/09 07:06:26;;;;;;;2.75;0.90;;;17.70;99.90;;;;;;5058593;28;20128;-70
2023/08/09 07:08:55;;;;;;;1.55;1.10;;;18.00;99.60;;;;;;5031410;28;20148;-73
2023/08/09 07:11:21;;;;;;;3.40;0.90;;;18.10;98.30;;;;;;5034728;28;20095;-73
2023/08/09 07:13:47;;;;;;;1.92;1.08;;;18.40;97.20;;;;;;5049360;28;20555;-70
2023/08/09 07:16:12;;;;;;;2.83;1.10;;;18.50;96.00;;;;;;5032612;28;20183;-72
2023/08/09 07:18:38;;;;;;;2.97;0.80;;;18.70;95.30;;;;;;5043288;28;20182;-70
2023/08/09 07:21:04;;;;;;;2.38;0.80;;;18.70;93.90;;;;;;5037723;28;20044;-73
2023/08/09 07:23:31;;;;;;;3.65;1.00;;;19.00;93.30;;;;;;5032108;28;20145;-75
2023/08/09 07:25:57;;;;;;;1.98;0.80;;;19.20;92.50;;;;;;5046474;28;20424;-73
2023/08/09 07:28:23;;;;;;;2.33;0.75;;;19.20;87.90;;;;;;5052672;28;20049;-72
2023/08/09 07:30:51;;;;;;;1.73;0.60;;;19.10;90.30;;;;;;5034749;28;20475;-72
2023/08/09 07:33:17;;;;;;;1.25;0.82;;;19.30;84.60;;;;;;5029541;28;20048;-73
2023/08/09 07:35:43;;;;;;;1.63;0.63;;;19.60;88.80;;;;;;5017861;28;20041;-73
2023/08/09 07:38:08;;;;;;;1.48;0.75;;;19.70;87.40;;;;;;5028302;28;20060;-72
2023/08/09 07:40:34;;;;;;;1.52;0.73;;;19.70;85.70;;;;;;5043904;28;20515;-74
2023/08/09 07:43:01;;;;;;;1.73;0.80;;;20.10;84.20;;;;;;5037153;28;20037;-73
2023/08/09 07:45:28;;;;;;;1.05;0.70;;;20.20;82.80;;;;;;5035650;28;20037;-73
2023/08/09 07:47:54;;;;;;;1.63;0.90;;;20.30;81.40;;;;;;5034445;28;20342;-72
2023/08/09 07:50:20;;;;;;;3.63;1.02;;;20.40;78.20;;;;;;5028511;28;20032;-74
2023/08/09 07:52:47;;;;;;;2.65;0.90;;;20.80;78.60;;;;;;5034346;28;20051;-76
2023/08/09 07:55:13;;;;;;;1.13;0.50;;;20.90;76.90;;;;;;5040376;28;20041;-71
2023/08/09 07:57:38;;;;;;;2.33;0.57;;;21.10;74.30;;;;;;5027394;28;20413;-74
2023/08/09 08:00:11;;;;;;;2.20;0.85;;;21.10;74.60;;;;;;5034025;28;20358;-75
2023/08/09 08:02:36;;;;;;;1.95;0.50;;;21.40;73.60;;;;;;5031901;28;20124;-74
2023/08/09 08:05:02;;;;;;;1.30;0.60;;;21.50;72.40;;;;;;5046462;28;20294;-77
2023/08/09 08:07:28;;;;;;;3.03;0.70;;;21.60;71.20;;;;;;5044798;28;20180;-73
2023/08/09 08:09:54;;;;;;;3.47;0.70;;;21.80;69.50;;;;;;5033715;28;20067;-75
2023/08/09 08:12:21;;;;;;;2.40;0.80;;;22.00;69.10;;;;;;5040595;28;20040;-74
2023/08/09 08:14:47;;;;;;;2.10;0.50;;;22.20;67.90;;;;;;5044015;28;20256;-75
2023/08/09 08:17:12;;;;;;;2.42;0.70;;;22.10;66.50;;;;;;5042889;28;20475;-77
2023/08/09 08:19:38;;;;;;;3.17;0.80;;;22.20;65.20;;;;;;5057348;28;20041;-72
2023/08/09 08:22:05;;;;;;;1.88;0.73;;;22.60;63.90;;;;;;5050281;28;20127;-76
2023/08/09 08:24:31;;;;;;;3.60;0.90;;;22.60;62.00;;;;;;5031845;28;20045;-74
2023/08/09 08:26:57;;;;;;;3.40;0.82;;;22.70;62.00;;;;;;5031276;28;20038;-75
2023/08/09 08:29:23;;;;;;;1.30;0.70;;;23.00;61.30;;;;;;5044467;28;20069;-74
2023/08/09 08:31:49;;;;;;;1.27;0.80;;;23.00;61.00;;;;;;5040652;28;20127;-73
2023/08/09 08:34:14;;;;;;;1.67;0.68;;;23.20;60.40;;;;;;5043347;28;20124;-72
2023/08/09 08:36:40;;;;;;;2.30;0.63;;;23.50;58.70;;;;;;5039350;28;20041;-73
2023/08/09 08:39:14;;;;;;;1.80;0.63;;;23.40;57.40;;;;;;5029936;28;20389;-73
2023/08/09 08:41:43;;;;;;;1.75;0.65;;;23.30;57.20;;;;;;5026189;28;20063;-72
2023/08/09 08:44:11;;;;;;;1.00;0.50;;;23.30;57.70;;;;;;5035652;28;20461;-73
2023/08/09 08:46:38;;;;;;;2.05;0.60;;;23.10;57.60;;;;;;5030978;28;20063;-76
2023/08/09 08:49:04;;;;;;;1.50;0.90;;;23.40;55.90;;;;;;5032146;28;20033;-73
2023/08/09 08:51:31;;;;;;;1.25;0.65;;;22.70;57.20;;;;;;5041187;28;20067;-76
2023/08/09 08:53:58;;;;;;;1.38;0.65;;;23.10;56.80;;;;;;5034201;28;20065;-71
2023/08/09 08:56:24;;;;;;;5.05;0.77;;;22.60;55.40;;;;;;5041831;28;20043;-75
2023/08/09 08:58:50;;;;;;;2.63;0.60;;;22.40;56.40;;;;;;5031327;28;20037;-74
2023/08/09 09:01:18;;;;;;;4.78;0.80;;;22.20;56.60;;;;;;5038693;28;20080;-74
2023/08/09 09:03:44;;;;;;;2.47;0.60;;;21.60;57.60;;;;;;5038064;28;20376;-74
2023/08/09 09:06:10;;;;;;;1.75;0.50;;;21.20;59.10;;;;;;5035029;28;20033;-74
2023/08/09 09:08:41;;;;;;;1.98;0.60;;;21.00;60.10;;;;;;5044142;28;20126;-74
2023/08/09 09:11:15;;;;;;;1.67;0.65;;;21.50;60.60;;;;;;5038248;28;20055;-74
2023/08/09 09:13:41;;;;;;;1.52;0.43;;;22.20;59.80;;;;;;5051880;28;20045;-74
2023/08/09 09:16:07;;;;;;;0.60;0.40;;;22.50;57.40;;;;;;5040572;28;20052;-76
2023/08/09 09:18:40;;;;;;;1.38;0.65;;;22.40;57.50;;;;;;5043798;28;20121;-70
2023/08/09 09:21:09;;;;;;;1.25;0.55;;;23.00;57.00;;;;;;5049482;28;20030;-74
2023/08/09 09:23:36;;;;;;;1.08;0.50;;;23.20;55.40;;;;;;5030469;28;20124;-76
2023/08/09 09:26:08;;;;;;;1.50;0.63;;;22.70;54.90;;;;;;5038343;28;20037;-73
2023/08/09 09:28:41;;;;;;;2.47;0.63;;;22.20;55.50;;;;;;5046421;28;20465;-74
2023/08/09 09:31:08;;;;;;;1.88;0.70;;;21.90;56.20;;;;;;5045026;28;20103;-74
2023/08/09 09:33:35;;;;;;;2.35;0.70;;;21.50;57.60;;;;;;5030075;28;20114;-74
2023/08/09 09:36:02;;;;;;;4.28;0.80;;;21.70;57.40;;;;;;5037465;28;20035;-75
2023/08/09 09:38:28;;;;;;;2.08;0.70;;;22.00;55.70;;;;;;5020888;28;20668;-74
2023/08/09 09:40:56;;;;;;;1.27;0.65;;;23.10;53.50;;;;;;5043403;28;20041;-73
2023/08/09 09:43:23;;;;;;;0.95;0.50;;;23.60;51.80;;;;;;5043130;28;20338;-75
2023/08/09 09:45:54;;;;;;;2.05;0.50;;;23.70;50.70;;;;;;5045606;28;20045;-75
2023/08/09 09:48:20;;;;;;;2.03;0.80;;;23.50;50.30;;;;;;5049826;28;20106;-73
2023/08/09 09:50:48;;;;;;;1.67;0.65;;;22.90;52.70;;;;;;5058750;28;20384;-75
2023/08/09 09:53:15;;;;;;;2.03;0.65;;;22.40;53.60;;;;;;5031067;28;20130;-73
2023/08/09 09:55:40;;;;;;;0.77;0.52;;;22.10;53.50;;;;;;5030581;28;20069;-75
2023/08/09 09:58:06;;;;;;;2.08;0.55;;;21.90;54.10;;;;;;5031190;28;20040;-73
2023/08/09 10:00:33;;;;;;;1.88;0.80;;;22.20;54.20;;;;;;5045417;28;20350;-75
2023/08/09 10:03:04;;;;;;;3.00;0.70;;;22.60;54.30;;;;;;5053453;28;20112;-74
2023/08/09 10:05:39;;;;;;;1.10;0.70;;;22.60;54.40;;;;;;5047073;28;20053;-77
2023/08/09 10:08:10;;;;;;;1.42;0.68;;;22.70;51.60;;;;;;5049879;28;20118;-73
2023/08/09 10:10:38;;;;;;;2.05;0.88;;;22.70;52.70;;;;;;5057418;28;20492;-76
2023/08/09 10:13:07;;;;;;;1.92;0.70;;;22.30;53.10;;;;;;5016347;28;20045;-73
2023/08/09 10:15:44;;;;;;;2.72;0.75;;;21.80;53.90;;;;;;5056570;28;20040;-74
2023/08/09 10:18:18;;;;;;;2.67;0.73;;;21.90;54.40;;;;;;5066916;28;20040;-75
2023/08/09 10:20:47;;;;;;;2.08;0.60;;;22.20;53.30;;;;;;5058367;28;20047;-77
2023/08/09 10:23:24;;;;;;;1.83;0.77;;;22.20;53.00;;;;;;5042857;28;20086;-72
2023/08/09 10:25:51;;;;;;;1.27;0.68;;;22.10;52.30;;;;;;5045801;28;20037;-75
2023/08/09 10:28:18;;;;;;;3.65;0.90;;;21.90;51.80;;;;;;5056789;28;20079;-72
2023/08/09 10:30:55;;;;;;;1.50;0.57;;;21.40;52.10;;;;;;5031172;28;20046;-74
2023/08/09 10:33:20;;;;;;;2.08;0.70;;;21.30;52.10;;;;;;5049263;28;20053;-73
2023/08/09 10:35:50;;;;;;;1.85;0.60;;;21.60;53.40;;;;;;5040996;28;20048;-75
2023/08/09 10:38:31;;;;;;;3.17;0.70;;;21.80;50.80;;;;;;5066572;28;20048;-73
2023/08/09 10:40:58;;;;;;;2.08;0.70;;;21.70;50.10;;;;;;5040553;28;20045;-76
2023/08/09 10:43:26;;;;;;;3.20;0.75;;;21.60;50.60;;;;;;5035025;28;20044;-74
2023/08/09 10:45:55;;;;;;;1.00;0.60;;;21.80;51.50;;;;;;5045954;28;20347;-74
2023/08/09 10:48:23;;;;;;;0.60;0.60;;;22.00;51.50;;;;;;5030630;28;20086;-71
2023/08/09 10:51:22;;;;;;;2.15;0.90;;;21.90;52.40;;;;;;5030284;28;20064;-72
2023/08/09 10:54:05;;;;;;;1.73;0.57;;;22.00;50.80;;;;;;5007298;28;20460;-72
2023/08/09 10:56:48;;;;;;;2.70;0.63;;;22.40;51.50;;;;;;5038574;28;20037;-73
2023/08/09 10:59:24;;;;;;;2.63;0.60;;;22.80;51.50;;;;;;5040147;28;20314;-73
2023/08/09 11:01:51;;;;;;;1.15;0.70;;;22.90;50.80;;;;;;5044893;28;20049;-72
2023/08/09 11:04:17;;;;;;;1.83;0.68;;;22.90;50.50;;;;;;5040078;28;20049;-71
2023/08/09 11:06:48;;;;;;;1.58;0.68;;;22.50;50.50;;;;;;5042898;28;20542;-74
2023/08/09 11:09:17;;;;;;;1.33;0.70;;;22.10;50.00;;;;;;5027834;28;20033;-74
2023/08/09 11:11:44;;;;;;;1.25;0.50;;;22.00;49.60;;;;;;5032933;28;20382;-73
2023/08/09 11:14:11;;;;;;;2.00;0.75;;;21.70;50.30;;;;;;5026501;28;20044;-73
2023/08/09 11:16:37;;;;;;;2.83;0.77;;;21.70;49.30;;;;;;5037525;28;20044;-75
2023/08/09 11:19:14;;;;;;;3.13;0.73;;;21.60;49.20;;;;;;5034936;28;20094;-71
2023/08/09 11:21:45;;;;;;;1.67;0.70;;;21.90;48.60;;;;;;5029488;28;20141;-74
2023/08/09 11:24:13;;;;;;;3.03;0.65;;;21.90;49.70;;;;;;5039894;28;21827;-71
2023/08/09 11:26:52;;;;;;;1.48;0.60;;;21.80;50.00;;;;;;5014431;28;20037;-71
2023/08/09 11:29:19;;;;;;;0.90;0.57;;;21.90;50.20;;;;;;5039776;28;20041;-72
2023/08/09 11:31:48;;;;;;;0.82;0.60;;;21.80;49.80;;;;;;5042642;28;20119;-71
2023/08/09 11:34:16;;;;;;;1.00;0.60;;;21.90;49.70;;;;;;5049088;28;20094;-71
2023/08/09 11:36:43;;;;;;;1.20;0.70;;;21.90;49.70;;;;;;5043545;28;20033;-71
2023/08/09 11:39:10;;;;;;;1.38;0.70;;;22.00;49.30;;;;;;5038250;28;20155;-76
2023/08/09 11:41:51;;;;;;;1.88;0.52;;;21.70;49.10;;;;;;5047971;28;20028;-70
2023/08/09 11:44:21;;;;;;;1.77;0.68;;;21.50;49.20;;;;;;5039527;28;20056;-76
2023/08/09 11:46:47;;;;;;;1.67;0.77;;;21.60;48.70;;;;;;5030191;28;20053;-78
2023/08/09 11:49:13;;;;;;;0.80;0.80;;;21.60;49.10;;;;;;5036144;28;20437;-74
2023/08/09 11:51:39;;;;;;;1.30;0.70;;;21.80;49.10;;;;;;5039204;28;20048;-69
2023/08/09 11:54:08;;;;;;;1.55;0.70;;;22.00;49.10;;;;;;5016442;28;20056;-69
2023/08/09 11:56:36;;;;;;;1.95;0.60;;;22.40;48.90;;;;;;5026941;28;20025;-71
2023/08/09 11:59:03;;;;;;;2.00;0.70;;;22.70;49.50;;;;;;5036197;28;20040;-71
2023/08/09 12:01:38;;;;;;;2.28;0.70;;;22.90;49.30;;;;;;5040513;28;20049;-71
2023/08/09 12:04:12;;;;;;;0.70;0.47;;;23.10;49.40;;;;;;5036744;28;20353;-73
2023/08/09 12:06:39;;;;;;;1.25;0.80;;;23.00;48.60;;;;;;5036663;28;20033;-71
2023/08/09 12:09:31;;;;;;;5.38;0.90;;;22.90;49.10;;;;;;5056510;28;20048;-71
2023/08/09 12:12:16;;;;;;;1.75;1.02;;;22.80;49.90;;;;;;5032076;28;20070;-72
2023/08/09 12:14:46;;;;;;;2.47;0.90;;;22.30;48.10;;;;;;5037290;28;20053;-74
2023/08/09 12:17:26;;;;;;;2.63;0.63;;;22.10;48.50;;;;;;5024738;28;20041;-74
2023/08/09 12:19:55;;;;;;;1.77;1.05;;;21.80;48.70;;;;;;5041429;28;20587;-73
2023/08/09 12:22:21;;;;;;;1.80;0.80;;;21.60;50.10;;;;;;5035646;28;20338;-74
2023/08/09 12:24:47;;;;;;;2.00;0.88;;;21.60;50.50;;;;;;5027275;28;20037;-73
2023/08/09 12:27:12;;;;;;;1.48;0.70;;;21.60;50.80;;;;;;5027116;28;20068;-75
2023/08/09 12:29:38;;;;;;;2.67;0.88;;;21.60;50.30;;;;;;5040338;28;20039;-74
2023/08/09 12:32:04;;;;;;;2.10;0.80;;;21.90;50.40;;;;;;5046592;28;20052;-70
2023/08/09 12:34:30;;;;;;;1.77;1.00;;;22.20;50.20;;;;;;5053201;28;20171;-71
2023/08/09 12:36:57;;;;;;;1.83;0.80;;;22.40;50.20;;;;;;5053391;28;20131;-73
2023/08/09 12:39:22;;;;;;;1.98;0.80;;;22.80;50.00;;;;;;5035567;28;20046;-73
2023/08/09 12:41:48;;;;;;;1.77;0.85;;;23.00;49.80;;;;;;5050210;28;20045;-72
2023/08/09 12:44:13;;;;;;;2.15;0.90;;;22.80;50.00;;;;;;5043664;28;20037;-75
2023/08/09 12:46:42;;;;;;;1.88;0.85;;;22.90;50.00;;;;;;5050717;28;20122;-68